Time;durP1;ratioP1;P1;durP2;ratioP2;P2;SDS_P1;SDS_P2;PMS_P1;PMS_P2;Temp;Humidity;BMP_temperature;BMP_pressure;BME280_temperature;BME280_humidity;BME280_pressure;Samples;Min_cycle;Max_cycle;Signal;HPM_P1;HPM_P2
2021/03/09 00:01:35;;;;;;;10.93;6.53;;;-0.90;99.90;;;;;;4824486;29;20043;-78
2021/03/09 00:04:01;;;;;;;9.40;5.57;;;-0.90;99.90;;;;;;4827384;29;20050;-77
2021/03/09 00:06:28;;;;;;;11.93;6.60;;;-0.90;99.90;;;;;;4807938;29;20418;-78
2021/03/09 00:08:59;;;;;;;8.82;6.38;;;-0.90;99.90;;;;;;4823041;29;20042;-78
2021/03/09 00:11:30;;;;;;;8.55;5.90;;;-0.90;99.90;;;;;;4825044;29;20106;-78
2021/03/09 00:14:01;;;;;;;9.02;5.88;;;-0.90;99.90;;;;;;4840247;29;20054;-78
2021/03/09 00:16:33;;;;;;;10.85;6.03;;;-0.90;99.90;;;;;;4841436;29;20074;-78
2021/03/09 00:19:04;;;;;;;10.93;6.43;;;-1.00;99.90;;;;;;4839958;29;20057;-78
2021/03/09 00:21:35;;;;;;;9.43;5.68;;;-1.00;99.90;;;;;;4841687;29;20490;-78
2021/03/09 00:24:07;;;;;;;10.25;6.10;;;-1.00;99.90;;;;;;4825675;29;20506;-78
2021/03/09 00:26:38;;;;;;;10.73;6.13;;;-1.00;99.90;;;;;;4825669;29;20080;-78
2021/03/09 00:29:09;;;;;;;9.00;6.60;;;-1.00;99.90;;;;;;4825335;29;20053;-78
2021/03/09 00:31:40;;;;;;;9.18;6.35;;;-1.10;99.90;;;;;;4839940;29;20081;-78
2021/03/09 00:34:12;;;;;;;10.88;6.43;;;-1.10;99.90;;;;;;4825530;29;20045;-78
2021/03/09 00:36:43;;;;;;;9.30;6.10;;;-1.10;99.90;;;;;;4840250;29;20410;-78
2021/03/09 00:39:14;;;;;;;12.18;7.10;;;-1.10;99.90;;;;;;4825456;29;20046;-78
2021/03/09 00:41:45;;;;;;;11.85;6.28;;;-1.20;99.90;;;;;;4841530;29;20435;-78
2021/03/09 00:44:17;;;;;;;13.05;6.90;;;-1.20;99.90;;;;;;4839974;29;20050;-78
2021/03/09 00:46:49;;;;;;;12.85;7.30;;;-1.20;99.90;;;;;;4825376;29;20085;-78
2021/03/09 00:49:21;;;;;;;10.15;6.55;;;-1.20;99.90;;;;;;4839844;29;20060;-78
2021/03/09 00:51:52;;;;;;;10.48;6.47;;;-1.20;99.90;;;;;;4825156;29;20132;-78
2021/03/09 00:54:23;;;;;;;11.55;6.50;;;-1.30;99.90;;;;;;4825234;29;20133;-78
2021/03/09 00:56:54;;;;;;;13.00;6.85;;;-1.20;99.90;;;;;;4824354;29;20078;-77
2021/03/09 00:59:26;;;;;;;11.45;7.55;;;-1.30;99.90;;;;;;4839403;29;20053;-78
2021/03/09 01:01:57;;;;;;;11.32;6.20;;;-1.30;99.90;;;;;;4825048;29;20128;-78
2021/03/09 01:04:28;;;;;;;10.48;7.18;;;-1.30;99.90;;;;;;4825182;29;20050;-78
2021/03/09 01:06:59;;;;;;;9.65;6.70;;;-1.40;99.90;;;;;;4839667;29;20574;-78
2021/03/09 01:09:31;;;;;;;10.57;6.80;;;-1.40;99.90;;;;;;4824657;29;20050;-78
2021/03/09 01:12:02;;;;;;;9.25;6.53;;;-1.40;99.90;;;;;;4825009;29;20529;-78
2021/03/09 01:14:33;;;;;;;11.07;7.50;;;-1.50;99.90;;;;;;4839309;29;20050;-78
2021/03/09 01:17:05;;;;;;;10.57;6.53;;;-1.40;99.90;;;;;;4824860;29;20144;-78
2021/03/09 01:19:36;;;;;;;13.15;7.90;;;-1.50;99.90;;;;;;4824499;29;20541;-78
2021/03/09 01:22:07;;;;;;;13.95;6.85;;;-1.50;99.90;;;;;;4825006;29;20121;-78
2021/03/09 01:24:39;;;;;;;14.05;7.50;;;-1.50;99.90;;;;;;4825089;29;20046;-79
2021/03/09 01:27:11;;;;;;;12.13;7.63;;;-1.50;99.90;;;;;;4839016;29;20074;-78
2021/03/09 01:29:42;;;;;;;12.57;7.78;;;-1.60;99.90;;;;;;4824663;29;20046;-78
2021/03/09 01:32:13;;;;;;;14.60;8.48;;;-1.60;99.90;;;;;;4824295;29;20144;-78
2021/03/09 01:34:45;;;;;;;11.98;7.93;;;-1.70;99.90;;;;;;4824673;29;20526;-77
2021/03/09 01:37:16;;;;;;;11.38;7.38;;;-1.70;99.90;;;;;;4824621;29;20501;-77
2021/03/09 01:39:43;;;;;;;11.18;7.50;;;-1.70;99.90;;;;;;4838327;29;20046;-78
2021/03/09 01:42:14;;;;;;;14.48;8.93;;;-1.70;99.90;;;;;;4839932;29;20102;-78
2021/03/09 01:44:46;;;;;;;11.50;7.30;;;-1.70;99.90;;;;;;4838811;29;20049;-78
2021/03/09 01:47:17;;;;;;;11.60;7.65;;;-1.70;99.90;;;;;;4838825;29;20073;-78
2021/03/09 01:49:49;;;;;;;12.48;7.15;;;-1.80;99.90;;;;;;4838683;29;20064;-78
2021/03/09 01:52:20;;;;;;;11.27;7.63;;;-1.80;99.90;;;;;;4824322;29;20074;-78
2021/03/09 01:54:51;;;;;;;14.57;7.55;;;-1.80;99.90;;;;;;4838624;29;20057;-78
2021/03/09 01:57:23;;;;;;;11.15;7.45;;;-1.80;99.90;;;;;;4824104;29;20092;-78
2021/03/09 01:59:56;;;;;;;10.98;7.40;;;-1.90;99.90;;;;;;4823631;29;20094;-78
2021/03/09 02:02:27;;;;;;;13.65;8.40;;;-1.90;99.90;;;;;;4823813;29;20046;-78
2021/03/09 02:04:59;;;;;;;12.65;8.23;;;-1.90;99.90;;;;;;4838436;29;20053;-78
2021/03/09 02:07:30;;;;;;;14.13;8.18;;;-1.90;99.90;;;;;;4822945;29;20089;-78
2021/03/09 02:10:03;;;;;;;12.82;7.88;;;-1.90;99.90;;;;;;4823496;29;20054;-78
2021/03/09 02:13:23;;;;;;;12.80;7.70;;;-2.00;99.90;;;;;;4838258;29;20106;-78
2021/03/09 02:16:16;;;;;;;12.73;7.57;;;-2.00;99.90;;;;;;4822599;29;20057;-78
2021/03/09 02:19:05;;;;;;;13.35;7.63;;;-2.00;99.90;;;;;;4823270;29;20042;-78
2021/03/09 02:21:47;;;;;;;15.00;8.48;;;-2.10;99.90;;;;;;4823291;29;20054;-78
2021/03/09 02:24:49;;;;;;;12.13;7.35;;;-2.10;99.90;;;;;;4823811;29;20057;-78
2021/03/09 02:27:33;;;;;;;12.88;7.88;;;-2.10;99.90;;;;;;4823870;29;20077;-78
2021/03/09 02:30:25;;;;;;;14.05;8.10;;;-2.10;99.90;;;;;;4823881;29;20060;-78
2021/03/09 02:33:04;;;;;;;12.20;7.38;;;-2.10;99.90;;;;;;4838519;29;20081;-78
2021/03/09 02:35:31;;;;;;;14.32;8.63;;;-2.10;99.90;;;;;;4838108;29;20416;-78
2021/03/09 02:38:05;;;;;;;14.95;8.60;;;-2.10;99.90;;;;;;4823240;29;20054;-78
2021/03/09 02:40:36;;;;;;;;;;;-2.10;99.90;;;;;;4838154;29;20132;-78
2021/03/09 02:43:07;;;;;;;13.15;7.82;;;-2.20;99.90;;;;;;4822707;29;19924;-78
2021/03/09 02:45:40;;;;;;;15.70;8.32;;;-2.20;99.90;;;;;;4837848;29;20046;-78
2021/03/09 02:48:12;;;;;;;;;;;-2.20;99.90;;;;;;4823942;29;20057;-78
2021/03/09 02:50:47;;;;;;;17.17;9.18;;;-2.20;99.90;;;;;;4823727;29;20356;-78
2021/03/09 02:53:18;;;;;;;15.90;9.18;;;-2.30;99.90;;;;;;4838109;29;20045;-78
2021/03/09 02:55:51;;;;;;;19.15;9.75;;;-2.30;99.90;;;;;;4838031;29;20129;-78
2021/03/09 02:58:23;;;;;;;17.38;9.32;;;-2.30;99.90;;;;;;4837654;29;20555;-78
2021/03/09 03:00:55;;;;;;;14.43;8.73;;;-2.30;99.90;;;;;;4837895;29;20133;-78
2021/03/09 03:03:28;;;;;;;17.83;9.70;;;-2.40;99.90;;;;;;4838046;29;20046;-78
2021/03/09 03:06:01;;;;;;;16.40;8.65;;;-2.40;99.90;;;;;;4823650;29;20159;-78
2021/03/09 03:08:32;;;;;;;15.95;9.43;;;-2.40;99.90;;;;;;4823201;29;20057;-78
2021/03/09 03:11:05;;;;;;;16.38;8.70;;;-2.40;99.90;;;;;;4823743;29;20077;-78
2021/03/09 03:13:36;;;;;;;16.38;9.73;;;-2.40;99.90;;;;;;4838120;29;20046;-78
2021/03/09 03:16:12;;;;;;;13.40;8.57;;;-2.40;99.90;;;;;;4823570;29;20550;-78
2021/03/09 03:18:45;;;;;;;14.32;9.25;;;-2.40;99.90;;;;;;4837771;29;20054;-78
2021/03/09 03:21:17;;;;;;;14.15;8.43;;;-2.50;99.90;;;;;;4826885;29;20155;-78
2021/03/09 03:23:49;;;;;;;16.38;9.77;;;-2.50;99.90;;;;;;4841426;29;20050;-78
2021/03/09 03:26:23;;;;;;;16.23;7.95;;;-2.50;99.90;;;;;;4841327;29;20116;-78
2021/03/09 03:28:56;;;;;;;14.95;8.52;;;-2.50;99.90;;;;;;4826503;29;20498;-78
2021/03/09 03:31:27;;;;;;;17.83;9.98;;;-2.50;99.90;;;;;;4826873;29;20062;-78
2021/03/09 03:33:59;;;;;;;16.38;8.98;;;-2.50;99.90;;;;;;4841138;29;20060;-78
2021/03/09 03:36:35;;;;;;;15.43;9.10;;;-2.50;99.90;;;;;;4826787;29;20046;-79
2021/03/09 03:39:07;;;;;;;14.07;9.13;;;-2.60;99.90;;;;;;4826348;29;20046;-78
2021/03/09 03:41:39;;;;;;;15.27;8.73;;;-2.60;99.90;;;;;;4841230;29;20081;-78
2021/03/09 03:44:10;;;;;;;13.52;9.05;;;-2.60;99.90;;;;;;4841313;29;20054;-78
2021/03/09 03:46:41;;;;;;;16.63;9.20;;;-2.60;99.90;;;;;;4826600;29;20046;-78
2021/03/09 03:49:13;;;;;;;13.60;8.68;;;-2.60;99.90;;;;;;4842156;29;20046;-78
2021/03/09 03:51:49;;;;;;;16.20;9.75;;;-2.60;99.90;;;;;;4811382;29;20074;-78
2021/03/09 03:54:44;;;;;;;14.05;8.20;;;-2.60;99.90;;;;;;4841125;29;20545;-78
2021/03/09 03:57:22;;;;;;;;;;;-2.60;99.90;;;;;;4842701;29;20046;-79
2021/03/09 03:59:58;;;;;;;16.15;9.40;;;-2.60;99.90;;;;;;4840866;29;19925;-78
2021/03/09 04:02:31;;;;;;;14.25;9.20;;;-2.60;99.90;;;;;;4840993;29;20109;-78
2021/03/09 04:05:06;;;;;;;15.48;8.95;;;-2.70;99.90;;;;;;4826285;29;20061;-78
2021/03/09 04:07:39;;;;;;;16.83;9.07;;;-2.70;99.90;;;;;;4826068;29;20526;-78
2021/03/09 04:10:11;;;;;;;17.00;9.45;;;-2.70;99.90;;;;;;4811127;29;20053;-78
2021/03/09 04:12:43;;;;;;;16.15;9.32;;;-2.70;99.90;;;;;;4825976;29;20078;-78
2021/03/09 04:15:16;;;;;;;15.68;9.20;;;-2.70;99.90;;;;;;4825906;29;20050;-78
2021/03/09 04:17:48;;;;;;;14.43;8.30;;;-2.70;99.90;;;;;;4825686;29;20065;-78
2021/03/09 04:20:20;;;;;;;16.15;9.45;;;-2.70;99.90;;;;;;4840284;29;20046;-78
2021/03/09 04:22:52;;;;;;;16.00;9.07;;;-2.70;99.90;;;;;;4840319;29;20073;-78
2021/03/09 04:25:19;;;;;;;14.60;9.30;;;-2.80;99.90;;;;;;4825197;29;20520;-78
2021/03/09 04:27:51;;;;;;;16.27;9.38;;;-2.80;99.90;;;;;;4840164;29;20729;-78
2021/03/09 04:30:23;;;;;;;17.92;9.20;;;-2.80;99.90;;;;;;4839521;29;20046;-78
2021/03/09 04:32:55;;;;;;;15.70;9.73;;;-2.80;99.90;;;;;;4825622;29;20085;-78
2021/03/09 04:35:21;;;;;;;15.75;10.00;;;-2.80;99.90;;;;;;4839911;29;20054;-78
2021/03/09 04:37:54;;;;;;;16.52;9.07;;;-2.90;99.90;;;;;;4841047;29;20060;-78
2021/03/09 04:40:25;;;;;;;15.10;9.82;;;-2.90;99.90;;;;;;4840786;29;20054;-77
2021/03/09 04:42:57;;;;;;;17.30;9.43;;;-2.90;99.90;;;;;;4841212;29;20391;-77
2021/03/09 04:45:23;;;;;;;18.65;9.45;;;-2.90;99.90;;;;;;4840176;29;20106;-77
2021/03/09 04:47:55;;;;;;;14.88;9.00;;;-2.90;99.90;;;;;;4839731;29;20052;-77
2021/03/09 04:50:21;;;;;;;17.75;9.50;;;-2.80;99.90;;;;;;4839633;29;20136;-77
2021/03/09 04:52:53;;;;;;;16.15;9.23;;;-2.90;99.90;;;;;;4825175;29;20467;-77
2021/03/09 04:55:26;;;;;;;16.73;9.05;;;-2.90;99.90;;;;;;4839736;29;20065;-77
2021/03/09 04:57:52;;;;;;;16.20;9.00;;;-2.90;99.90;;;;;;4824273;29;20054;-77
2021/03/09 05:00:21;;;;;;;13.18;9.07;;;-2.90;99.90;;;;;;4839767;29;20133;-77
2021/03/09 05:02:53;;;;;;;17.65;9.52;;;-2.90;99.90;;;;;;4824976;29;20120;-77
2021/03/09 05:05:24;;;;;;;17.95;8.38;;;-3.00;99.90;;;;;;4825155;29;20069;-77
2021/03/09 05:07:55;;;;;;;16.27;8.48;;;-3.00;99.90;;;;;;4839312;29;20046;-77
2021/03/09 05:10:22;;;;;;;15.88;9.10;;;-3.00;99.90;;;;;;4824335;29;20150;-77
2021/03/09 05:12:53;;;;;;;21.48;9.15;;;-3.00;99.90;;;;;;4840671;29;20049;-77
2021/03/09 05:15:24;;;;;;;14.73;8.93;;;-3.00;99.90;;;;;;4824917;29;20056;-77
2021/03/09 05:17:56;;;;;;;21.13;9.57;;;-3.00;99.90;;;;;;4824731;29;20121;-76
2021/03/09 05:20:22;;;;;;;14.65;9.20;;;-3.10;99.90;;;;;;4824338;29;20579;-76
2021/03/09 05:22:49;;;;;;;18.75;9.20;;;-3.10;99.90;;;;;;4839015;29;20042;-77
2021/03/09 05:25:20;;;;;;;20.45;9.15;;;-3.10;99.90;;;;;;4838772;29;20125;-76
2021/03/09 05:27:51;;;;;;;14.55;8.52;;;-3.10;99.90;;;;;;4827640;29;20057;-76
2021/03/09 05:30:20;;;;;;;14.63;8.73;;;-3.20;99.90;;;;;;4811200;29;20569;-77
2021/03/09 05:32:51;;;;;;;16.67;9.30;;;-3.20;99.90;;;;;;4823635;29;20071;-77
2021/03/09 05:35:18;;;;;;;17.90;9.30;;;-3.20;99.90;;;;;;4853230;29;20120;-76
2021/03/09 05:37:49;;;;;;;15.88;9.07;;;-3.20;99.90;;;;;;4841068;29;20072;-77
2021/03/09 05:40:20;;;;;;;18.95;11.38;;;-3.20;99.90;;;;;;4841896;29;20086;-76
2021/03/09 05:42:53;;;;;;;18.98;10.60;;;-3.10;99.90;;;;;;4826777;29;20069;-76
2021/03/09 05:45:24;;;;;;;18.58;10.05;;;-3.20;99.90;;;;;;4841307;29;20042;-76
2021/03/09 05:47:51;;;;;;;19.08;10.02;;;-3.20;99.90;;;;;;4841038;29;20046;-76
2021/03/09 05:50:23;;;;;;;24.75;11.43;;;-3.20;99.90;;;;;;4841166;29;20132;-76
2021/03/09 05:52:54;;;;;;;18.52;11.00;;;-3.20;99.90;;;;;;4841011;29;20054;-77
2021/03/09 05:55:20;;;;;;;19.55;10.93;;;-3.10;99.90;;;;;;4840785;29;20054;-77
2021/03/09 05:57:47;;;;;;;18.08;10.55;;;-3.20;99.90;;;;;;4836425;29;20592;-76
2021/03/09 06:00:14;;;;;;;18.08;10.93;;;-3.10;99.90;;;;;;4822387;29;20050;-76
2021/03/09 06:02:47;;;;;;;23.67;11.52;;;-3.10;99.90;;;;;;4808166;29;20064;-76
2021/03/09 06:05:19;;;;;;;21.77;12.68;;;-3.10;99.90;;;;;;4808231;29;20050;-76
2021/03/09 06:07:54;;;;;;;18.10;11.48;;;-3.10;99.90;;;;;;4822408;29;20069;-76
2021/03/09 06:10:25;;;;;;;23.10;11.70;;;-3.10;99.90;;;;;;4822626;29;20049;-76
2021/03/09 06:12:52;;;;;;;24.63;11.50;;;-3.10;99.90;;;;;;4823422;29;20058;-77
2021/03/09 06:15:19;;;;;;;25.98;12.32;;;-3.10;99.90;;;;;;4819776;29;20517;-77
2021/03/09 06:17:56;;;;;;;19.45;11.25;;;-3.00;99.90;;;;;;4822532;29;20054;-76
2021/03/09 06:20:30;;;;;;;28.27;13.02;;;-3.00;99.90;;;;;;4824808;29;20049;-76
2021/03/09 06:22:59;;;;;;;26.67;12.23;;;-3.00;99.90;;;;;;4827074;29;20596;-77
2021/03/09 06:25:33;;;;;;;21.10;11.57;;;-2.90;99.90;;;;;;4821518;29;20133;-76
2021/03/09 06:28:06;;;;;;;23.73;13.02;;;-2.90;99.90;;;;;;4819103;29;20138;-76
2021/03/09 06:30:40;;;;;;;21.60;12.95;;;-2.90;99.90;;;;;;4822595;29;20042;-76
2021/03/09 06:33:26;;;;;;;23.30;12.52;;;-2.90;99.90;;;;;;4822431;29;20054;-76
2021/03/09 06:36:00;;;;;;;23.42;11.93;;;-2.90;99.90;;;;;;4821907;29;20387;-76
2021/03/09 06:38:31;;;;;;;24.05;12.02;;;-2.90;99.90;;;;;;4821692;29;20058;-76
2021/03/09 06:41:14;;;;;;;25.88;12.98;;;-2.90;99.90;;;;;;4807469;29;20048;-76
2021/03/09 06:43:57;;;;;;;27.75;12.98;;;-2.80;99.90;;;;;;4821810;29;20042;-76
2021/03/09 06:46:24;;;;;;;26.17;14.18;;;-2.80;99.90;;;;;;4822008;29;20060;-76
2021/03/09 06:49:01;;;;;;;21.40;11.70;;;-2.80;99.90;;;;;;4821681;29;20050;-76
2021/03/09 06:51:34;;;;;;;27.58;13.88;;;-2.70;99.90;;;;;;4838482;29;20436;-76
2021/03/09 06:54:11;;;;;;;26.05;13.77;;;-2.70;99.90;;;;;;4826541;29;20053;-76
2021/03/09 06:56:45;;;;;;;27.63;16.20;;;-2.60;99.90;;;;;;4824661;29;20050;-77
2021/03/09 06:59:27;;;;;;;27.25;14.80;;;-2.50;99.90;;;;;;4824934;29;20080;-76
2021/03/09 07:02:08;;;;;;;34.35;17.67;;;-2.50;99.90;;;;;;4811352;29;20057;-76
2021/03/09 07:05:00;;;;;;;36.13;18.27;;;-2.40;99.90;;;;;;4839049;29;20046;-76
2021/03/09 07:07:39;;;;;;;30.33;18.73;;;-2.30;99.90;;;;;;4843528;29;20125;-76
2021/03/09 07:10:10;;;;;;;32.65;15.60;;;-2.30;99.90;;;;;;4827170;29;20076;-76
2021/03/09 07:12:42;;;;;;;28.65;14.90;;;-2.20;99.90;;;;;;4843339;29;20053;-76
2021/03/09 07:15:16;;;;;;;27.15;16.10;;;-2.20;99.90;;;;;;4843809;29;20493;-76
2021/03/09 07:17:43;;;;;;;31.30;16.40;;;-2.10;99.90;;;;;;4841898;29;20144;-76
2021/03/09 07:20:12;;;;;;;31.48;17.05;;;-2.10;99.90;;;;;;4824677;29;20086;-76
2021/03/09 07:22:45;;;;;;;27.08;16.60;;;-2.00;99.90;;;;;;4828591;29;20045;-76
2021/03/09 07:25:19;;;;;;;28.15;16.25;;;-1.90;99.90;;;;;;4828565;29;20069;-76
2021/03/09 07:28:02;;;;;;;29.20;15.57;;;-1.90;99.90;;;;;;4842135;29;20048;-76
2021/03/09 07:30:39;;;;;;;26.85;15.50;;;-1.80;99.90;;;;;;4828614;29;20391;-77
2021/03/09 07:33:06;;;;;;;27.15;14.75;;;-1.70;99.90;;;;;;4827885;29;20112;-76
2021/03/09 07:35:37;;;;;;;25.70;15.50;;;-1.60;99.90;;;;;;4842835;29;20069;-76
2021/03/09 07:38:06;;;;;;;27.42;15.20;;;-1.60;99.90;;;;;;4842215;29;20053;-76
2021/03/09 07:40:37;;;;;;;28.17;14.73;;;-1.50;99.90;;;;;;4828244;29;20490;-76
2021/03/09 07:43:08;;;;;;;28.83;15.85;;;-1.40;99.90;;;;;;4827792;29;20058;-76
2021/03/09 07:45:40;;;;;;;29.35;15.77;;;-1.40;99.90;;;;;;4828305;29;20140;-76
2021/03/09 07:48:12;;;;;;;26.90;15.93;;;-1.30;99.90;;;;;;4842142;29;20089;-76
2021/03/09 07:50:41;;;;;;;32.15;16.40;;;-1.30;99.90;;;;;;4842826;29;20493;-76
2021/03/09 07:53:11;;;;;;;31.65;15.75;;;-1.20;99.90;;;;;;4843020;29;20080;-76
2021/03/09 07:55:39;;;;;;;22.98;13.73;;;-1.10;99.90;;;;;;4823360;29;20624;-76
2021/03/09 07:58:15;;;;;;;25.13;15.25;;;-1.00;99.90;;;;;;4823614;29;20517;-76
2021/03/09 08:00:59;;;;;;;25.00;14.70;;;-1.00;99.90;;;;;;4823189;29;20053;-76
2021/03/09 08:03:41;;;;;;;27.25;15.73;;;-0.90;99.90;;;;;;4829072;29;20468;-77
2021/03/09 08:06:08;;;;;;;27.33;15.80;;;-0.90;99.90;;;;;;4819315;29;20037;-76
2021/03/09 08:08:54;;;;;;;26.23;14.88;;;-0.80;99.90;;;;;;4832923;29;20748;-77
2021/03/09 08:11:20;;;;;;;27.52;15.75;;;-0.70;99.90;;;;;;4821916;29;20033;-76
2021/03/09 08:13:47;;;;;;;28.95;15.68;;;-0.60;99.90;;;;;;4823090;29;20505;-76
2021/03/09 08:16:19;;;;;;;26.88;14.40;;;-0.50;99.90;;;;;;4807987;29;20046;-77
2021/03/09 08:18:52;;;;;;;24.92;14.68;;;-0.40;99.90;;;;;;4814496;29;20531;-80
2021/03/09 08:21:38;;;;;;;30.00;14.90;;;-0.30;99.90;;;;;;4819500;29;20057;-80
2021/03/09 08:24:09;;;;;;;26.65;13.88;;;-0.20;99.90;;;;;;4832799;29;20057;-80
2021/03/09 08:26:37;;;;;;;24.08;14.70;;;0.00;99.90;;;;;;4834825;29;20076;-80
2021/03/09 08:29:27;;;;;;;22.70;13.95;;;0.10;99.90;;;;;;4834805;29;20042;-80
2021/03/09 08:32:23;;;;;;;23.27;13.23;;;0.20;99.90;;;;;;4840427;29;20422;-80
2021/03/09 08:34:51;;;;;;;24.70;14.32;;;0.30;99.90;;;;;;4841211;29;20045;-80
2021/03/09 08:37:34;;;;;;;24.83;14.88;;;0.30;99.90;;;;;;4839329;29;20307;-80
2021/03/09 08:40:13;;;;;;;26.47;14.73;;;0.40;99.90;;;;;;4850843;29;20510;-79
2021/03/09 08:43:01;;;;;;;28.50;15.05;;;0.60;99.90;;;;;;4836906;29;20385;-80
2021/03/09 08:45:56;;;;;;;25.27;14.43;;;0.70;99.90;;;;;;4848383;29;20049;-80
2021/03/09 08:48:49;;;;;;;29.48;14.80;;;0.80;99.90;;;;;;4845228;29;20037;-80
2021/03/09 08:51:41;;;;;;;24.50;14.10;;;1.00;99.90;;;;;;4843754;29;20522;-80
2021/03/09 08:54:25;;;;;;;24.25;14.32;;;1.10;99.90;;;;;;4842732;29;20529;-78
2021/03/09 08:56:51;;;;;;;29.73;15.68;;;1.20;99.90;;;;;;4827323;29;20577;-80
2021/03/09 08:59:24;;;;;;;29.15;16.52;;;1.20;99.90;;;;;;4839133;29;20068;-80
2021/03/09 09:01:51;;;;;;;29.35;16.38;;;1.30;99.90;;;;;;4823003;29;20053;-79
2021/03/09 09:04:18;;;;;;;25.67;15.77;;;1.40;99.90;;;;;;4823748;29;20563;-80
2021/03/09 09:06:50;;;;;;;28.35;17.05;;;1.40;99.90;;;;;;4809639;29;20610;-79
2021/03/09 09:09:31;;;;;;;28.25;16.80;;;1.50;99.90;;;;;;4856702;24;20133;-80
2021/03/09 09:11:58;;;;;;;30.38;15.40;;;1.50;99.90;;;;;;4826383;29;20049;-80
2021/03/09 09:14:26;;;;;;;27.38;15.95;;;1.60;99.90;;;;;;4826383;29;20054;-80
2021/03/09 09:16:54;;;;;;;28.58;15.75;;;1.70;99.90;;;;;;4825853;29;20136;-80
2021/03/09 09:19:21;;;;;;;25.33;14.50;;;1.80;99.90;;;;;;4811573;29;20042;-80
2021/03/09 09:21:50;;;;;;;25.05;16.05;;;1.90;99.90;;;;;;4811589;29;20050;-80
2021/03/09 09:24:18;;;;;;;26.80;15.82;;;2.00;99.90;;;;;;4826392;29;20122;-79
2021/03/09 09:26:57;;;;;;;31.02;16.08;;;2.10;99.90;;;;;;4826842;29;20061;-80
2021/03/09 09:29:24;;;;;;;30.90;19.25;;;2.20;99.90;;;;;;4811517;29;20050;-80
2021/03/09 09:31:59;;;;;;;30.98;17.77;;;2.30;99.90;;;;;;4826879;29;20098;-81
2021/03/09 09:34:37;;;;;;;25.25;16.10;;;2.40;99.90;;;;;;4827060;29;20144;-80
2021/03/09 09:37:13;;;;;;;30.85;18.08;;;2.50;99.90;;;;;;4827233;29;20109;-80
2021/03/09 09:39:41;;;;;;;30.30;16.33;;;2.60;99.90;;;;;;4826895;29;20077;-80
2021/03/09 09:42:16;;;;;;;30.48;16.85;;;2.70;99.90;;;;;;4826958;29;20137;-80
2021/03/09 09:44:47;;;;;;;26.70;16.45;;;2.80;99.90;;;;;;4816448;29;20048;-81
2021/03/09 09:47:19;;;;;;;29.17;17.13;;;2.90;99.90;;;;;;4844051;29;20049;-81
2021/03/09 09:49:51;;;;;;;28.33;17.33;;;3.10;99.90;;;;;;4829697;29;20060;-80
2021/03/09 09:52:23;;;;;;;31.65;17.85;;;3.10;99.90;;;;;;4842039;29;20121;-79
2021/03/09 09:54:55;;;;;;;28.63;17.65;;;3.20;99.90;;;;;;4840455;29;20136;-79
2021/03/09 09:57:22;;;;;;;30.70;16.40;;;3.40;99.90;;;;;;4808674;29;20077;-79
2021/03/09 09:59:49;;;;;;;27.25;17.35;;;3.50;99.90;;;;;;4822760;29;20789;-79
2021/03/09 10:02:24;;;;;;;27.83;17.40;;;3.60;99.90;;;;;;4820710;29;20161;-79
2021/03/09 10:04:51;;;;;;;26.50;16.45;;;3.70;99.90;;;;;;4837264;29;20061;-79
2021/03/09 10:07:22;;;;;;;29.00;16.90;;;3.70;99.90;;;;;;4826481;29;20132;-78
2021/03/09 10:10:02;;;;;;;24.48;16.58;;;3.80;99.90;;;;;;4839191;29;20084;-79
2021/03/09 10:12:38;;;;;;;25.70;15.60;;;4.00;99.90;;;;;;4825742;29;20160;-78
2021/03/09 10:15:10;;;;;;;26.73;15.18;;;4.00;99.90;;;;;;4840089;29;20109;-78
2021/03/09 10:17:41;;;;;;;27.35;16.58;;;4.10;99.90;;;;;;4839837;29;20144;-78
2021/03/09 10:20:22;;;;;;;28.58;15.95;;;4.20;99.90;;;;;;4836899;29;20510;-80
2021/03/09 10:23:04;;;;;;;23.85;14.68;;;4.20;99.90;;;;;;4814518;29;20113;-80
2021/03/09 10:25:31;;;;;;;25.20;14.95;;;4.40;99.90;;;;;;4837161;29;20046;-79
2021/03/09 10:28:04;;;;;;;23.42;14.68;;;4.40;99.90;;;;;;4828097;29;20073;-80
2021/03/09 10:30:41;;;;;;;24.60;14.50;;;4.40;99.90;;;;;;4812131;29;20069;-81
2021/03/09 10:33:10;;;;;;;23.95;14.45;;;4.50;99.90;;;;;;4810097;29;20057;-80
2021/03/09 10:36:07;;;;;;;25.23;14.38;;;4.50;99.90;;;;;;4830804;29;20429;-81
2021/03/09 10:38:34;;;;;;;20.25;14.18;;;4.60;99.90;;;;;;4793519;29;20479;-80
2021/03/09 10:41:02;;;;;;;22.17;13.45;;;4.70;99.90;;;;;;4807118;29;20050;-81
2021/03/09 10:43:42;;;;;;;22.48;14.40;;;4.80;99.90;;;;;;4791915;29;20066;-80
2021/03/09 10:46:10;;;;;;;21.23;13.25;;;4.80;99.90;;;;;;4810776;29;20073;-80
2021/03/09 10:48:39;;;;;;;28.60;13.35;;;4.90;99.90;;;;;;4842438;29;20047;-80
2021/03/09 10:51:19;;;;;;;22.83;13.38;;;4.90;99.90;;;;;;4828116;29;20049;-80
2021/03/09 10:53:51;;;;;;;22.70;14.02;;;5.00;99.90;;;;;;4839802;29;20164;-80
2021/03/09 10:56:23;;;;;;;24.70;13.45;;;5.30;99.90;;;;;;4842831;29;20113;-80
2021/03/09 10:58:55;;;;;;;23.05;13.90;;;5.20;99.90;;;;;;4843043;29;20106;-80
2021/03/09 11:01:21;;;;;;;21.67;12.18;;;5.30;99.90;;;;;;4828440;29;20049;-80
2021/03/09 11:03:48;;;;;;;18.83;12.10;;;5.20;99.90;;;;;;4828008;29;20045;-80
2021/03/09 11:06:20;;;;;;;19.92;13.07;;;5.20;99.90;;;;;;4828519;29;20054;-80
2021/03/09 11:08:51;;;;;;;21.70;12.95;;;5.20;99.90;;;;;;4830944;29;20049;-78
2021/03/09 11:25:37;;;;;;;16.90;10.98;;;5.50;99.90;;;;;;4860503;29;20045;-81
2021/03/09 11:28:04;;;;;;;18.45;12.00;;;5.60;99.90;;;;;;4843728;29;20057;-81
2021/03/09 11:30:31;;;;;;;17.30;11.50;;;5.70;99.90;;;;;;4828940;29;20057;-81
2021/03/09 11:32:58;;;;;;;16.35;12.18;;;5.80;99.90;;;;;;4843996;29;20101;-81
2021/03/09 11:35:25;;;;;;;16.08;10.60;;;5.90;99.90;;;;;;4829096;29;20053;-81
2021/03/09 11:37:52;;;;;;;15.18;10.23;;;6.00;99.70;;;;;;4843781;29;20045;-80
2021/03/09 11:40:19;;;;;;;19.08;11.77;;;6.00;98.10;;;;;;4830406;29;20069;-81
2021/03/09 11:42:46;;;;;;;16.95;10.88;;;6.20;97.60;;;;;;4847392;29;20052;-81
2021/03/09 11:45:18;;;;;;;13.05;10.00;;;6.30;95.20;;;;;;4847417;29;20045;-81
2021/03/09 11:47:51;;;;;;;13.13;8.93;;;6.40;93.20;;;;;;4832469;29;20061;-81
2021/03/09 11:50:17;;;;;;;12.45;9.25;;;6.40;85.60;;;;;;4833285;29;20053;-81
2021/03/09 11:52:44;;;;;;;12.70;8.95;;;6.50;82.40;;;;;;4832449;29;20136;-81
2021/03/09 11:55:12;;;;;;;14.77;9.50;;;6.50;82.90;;;;;;4846832;29;20488;-80
2021/03/09 11:57:39;;;;;;;14.40;9.88;;;6.50;78.50;;;;;;4847164;29;20491;-81
2021/03/09 12:00:06;;;;;;;15.20;9.98;;;6.50;78.10;;;;;;4846805;29;20046;-81
2021/03/09 12:02:38;;;;;;;14.18;9.20;;;6.50;77.00;;;;;;4832143;29;20132;-81
2021/03/09 12:05:12;;;;;;;13.50;8.85;;;6.60;76.10;;;;;;4820270;29;20050;-81
2021/03/09 12:07:39;;;;;;;15.25;9.82;;;6.70;72.90;;;;;;4828258;29;20141;-81
2021/03/09 12:10:11;;;;;;;15.52;9.25;;;6.70;73.80;;;;;;4828840;29;20058;-81
2021/03/09 12:12:38;;;;;;;11.90;8.85;;;6.80;74.60;;;;;;4828102;29;20506;-81
2021/03/09 12:15:05;;;;;;;14.73;10.02;;;6.80;78.00;;;;;;4813030;29;20045;-81
2021/03/09 12:17:32;;;;;;;15.63;8.05;;;6.80;75.40;;;;;;4828058;29;20135;-80
2021/03/09 12:19:59;;;;;;;11.85;9.10;;;6.80;75.00;;;;;;4827490;29;20092;-80
2021/03/09 12:22:25;;;;;;;14.57;8.90;;;6.90;75.50;;;;;;4829093;29;20437;-81
2021/03/09 12:24:57;;;;;;;13.00;8.82;;;6.90;69.80;;;;;;4813320;29;20158;-81
2021/03/09 12:27:24;;;;;;;13.15;9.13;;;7.00;69.70;;;;;;4812646;29;20053;-81
2021/03/09 12:29:56;;;;;;;14.38;8.35;;;6.90;68.00;;;;;;4813313;29;20045;-81
2021/03/09 12:32:28;;;;;;;11.60;9.02;;;6.90;71.20;;;;;;4827515;29;20061;-81
2021/03/09 12:35:00;;;;;;;11.68;8.40;;;7.00;69.10;;;;;;4813634;29;20083;-81
2021/03/09 12:37:32;;;;;;;11.70;8.35;;;7.00;68.70;;;;;;4827153;29;20050;-81
2021/03/09 12:40:05;;;;;;;11.00;7.78;;;7.00;67.80;;;;;;4826802;29;20070;-80
2021/03/09 12:42:32;;;;;;;11.95;8.27;;;7.00;70.20;;;;;;4826704;29;20069;-80
2021/03/09 12:45:05;;;;;;;12.88;8.80;;;7.10;66.50;;;;;;4812344;29;20057;-81
2021/03/09 12:47:33;;;;;;;13.10;8.20;;;7.10;67.10;;;;;;4811518;29;20057;-80
2021/03/09 12:50:05;;;;;;;15.30;9.05;;;6.90;64.70;;;;;;4826167;29;20072;-80
2021/03/09 12:52:39;;;;;;;16.27;8.40;;;6.90;67.00;;;;;;4811367;29;20050;-80
2021/03/09 12:55:07;;;;;;;12.95;8.27;;;7.00;65.60;;;;;;4811405;29;20402;-79
2021/03/09 12:57:39;;;;;;;11.70;8.37;;;7.00;63.30;;;;;;4826415;29;20046;-80
2021/03/09 13:00:07;;;;;;;12.23;9.23;;;7.00;63.40;;;;;;4826194;29;20054;-80
2021/03/09 13:02:34;;;;;;;14.55;9.05;;;7.10;64.60;;;;;;4811139;29;20103;-80
2021/03/09 13:05:04;;;;;;;13.85;8.93;;;7.20;67.00;;;;;;4811211;29;20054;-80
2021/03/09 13:07:35;;;;;;;12.02;7.97;;;7.30;66.30;;;;;;4811933;29;20046;-80
2021/03/09 13:10:09;;;;;;;13.02;9.13;;;7.40;63.50;;;;;;4826088;29;20073;-80
2021/03/09 13:12:36;;;;;;;11.85;8.23;;;7.50;64.60;;;;;;4816778;29;20102;-79
2021/03/09 13:15:05;;;;;;;11.90;8.30;;;7.50;65.40;;;;;;4829566;29;20140;-81
2021/03/09 13:17:38;;;;;;;19.45;14.07;;;7.60;63.10;;;;;;4830171;29;20061;-80
2021/03/09 13:20:13;;;;;;;12.55;9.20;;;7.60;63.10;;;;;;4847362;29;20052;-81